Jim Hamilton L.B. Owens Airport
KCUB : now visible

Airfield :











YOU CAN JOIN US ON...

 
LOGIN :

Register | Disclaimer

   EN    FR    IT 

 









Legend :    VFR   Marginal VFR   IFR   Intensive IFR   Very Intensive IFR
Visi :
Ceiling :
>= 8 km
>= 3000ft
5 to 8 km
1000 to 3000 ft
1500m to 5 km
500 to 1000 ft
800 to 1500m
200 to 500 ft
< 800m
< 200 ft
Symbols :   Thunderstorms  Fog  Heavy snow  Heavy precipitations  Wind > 20 kt






- Airport Elevation : 193 ft


KCUB - Jim Hamilton L.B. Owens

CURRENT METAR :
  • 242153Z AUTO 14008G15KT 10SM OVC020 18/14 A2990 RMK AO2 SLP125 T01780144

EXPIRED METARs :
  • 242053Z AUTO 15011G16KT 10SM BKN021 OVC029 18/14 A2993 RMK AO2 SLP133 60001 T01780139 56024
  • 241953Z AUTO 16012G16KT 10SM BKN024 BKN037 OVC060 18/14 A2995 RMK AO2 RAB14E40 SLP139 P0001 T01780139
  • 241920Z AUTO 16009KT 5SM -RA SCT026 BKN043 OVC050 18/13 A2996 RMK AO2 RAB14 P0001 T01780133

TAF KCUB
Valid from the 24 at 22:00 until the 25 at 18:00 UTC


242216Z 2422/2518 14010G18KT 6SM -SHRA VCTS BKN020CB
TEMPO 2422/2423 26015G25KT 1SM +SHRA BKN006
FM250300 26007KT P6SM SCT010 BKN020 OVC060
FM250800 27007KT P6SM SCT030



MET'MAP, your aeronautical weather chart ! - Copyright ORBIFLY December 2007 - Disclaimer

ORBIFLY MET'MAP TEAM :

Programming & Development : Alexandra Zaïnal
Concept & original design : Baudouin d'Aumeries
Assistance for programming : Marc-Olivier Méhu
Technical & hardware support : Manuel Goepfert

Contact : metmap@orbifly.com




SOURCES & CREDITS :

   NOAA       Earth
Advisory